PWSweather.com
Personal Weather Stations
Station Observations
KIDNAMPA57
Canyon County Idaho, Nampa, ID 83687

Canyon County IdahoNampa, ID 83687

Lat: 43.587235, Lon: -116.49831979999999

Elevation: 2615

Station Type: Davis Vantage Pro 2

www.rockinglweather.com

High Low Average
Temperature 43.4°F6.3°C 30.6°F-0.8°C 36.5°F2.5°C
Dew Point 34.6°F1.4°C 24.3°F-4.3°C 28.3°F-2.1°C
Winds 22.0 mph 35.4 kmh Calm Calm 9.0 mph NW14.5 kmh NW
Wind Gusts 31.0 mph49.9 kmh 5.0 mph8.0 kmh 15.0 mph24.1 kmh
Humidity 84% 52% 73%
Pressure 30.41 in1029.8 mb 29.73 in1006.8 mb -
Precipitation 0.00 in0.0 mm - -
Hour Temp Dew Point Humidity Winds Wind Gusts Pressure Precip Precip Rate Daily Precip Total
12:00 AM 42.6°F5.9°C 37.2°F2.9°C 81% 6.0 mph NW9.7 kmh NW 9.0 mph14.5 kmh 29.72 in1006.4 mb 0.00 in0.0 mm 0.00 in0.0 mm 0.00 in0.0 mm
12:05 AM 42.4°F5.8°C 37.3°F2.9°C 82% 7.0 mph NW11.3 kmh NW 9.0 mph14.5 kmh 29.73 in1006.8 mb 0.00 in0.0 mm 0.00 in0.0 mm 0.00 in0.0 mm
12:10 AM 42.2°F5.7°C 37.1°F2.8°C 82% 7.0 mph NW11.3 kmh NW 9.0 mph14.5 kmh 29.73 in1006.8 mb 0.00 in0.0 mm 0.00 in0.0 mm 0.00 in0.0 mm
12:15 AM 42.0°F5.6°C 37.2°F2.9°C 83% 5.0 mph NW8.0 kmh NW 9.0 mph14.5 kmh 29.73 in1006.8 mb 0.00 in0.0 mm 0.00 in0.0 mm 0.00 in0.0 mm
12:20 AM 41.8°F5.4°C 37.0°F2.8°C 83% 4.0 mph NW6.4 kmh NW 8.0 mph12.9 kmh 29.73 in1006.8 mb 0.00 in0.0 mm 0.00 in0.0 mm 0.00 in0.0 mm
12:25 AM 41.6°F5.3°C 36.8°F2.7°C 83% 7.0 mph NW11.3 kmh NW 8.0 mph12.9 kmh 29.73 in1006.8 mb 0.00 in0.0 mm 0.00 in0.0 mm 0.00 in0.0 mm
12:30 AM 41.4°F5.2°C 36.6°F2.6°C 83% 8.0 mph NW12.9 kmh NW 8.0 mph12.9 kmh 29.73 in1006.8 mb 0.00 in0.0 mm 0.00 in0.0 mm 0.00 in0.0 mm
12:35 AM 41.2°F5.1°C 36.4°F2.4°C 83% 5.0 mph NW8.0 kmh NW 9.0 mph14.5 kmh 29.73 in1006.8 mb 0.00 in0.0 mm 0.00 in0.0 mm 0.00 in0.0 mm
12:40 AM 41.0°F5.0°C 36.2°F2.3°C 83% 7.0 mph NW11.3 kmh NW 12.0 mph19.3 kmh 29.74 in1007.1 mb 0.00 in0.0 mm 0.00 in0.0 mm 0.00 in0.0 mm
12:45 AM 40.7°F4.8°C 36.0°F2.2°C 83% 7.0 mph NW11.3 kmh NW 12.0 mph19.3 kmh 29.73 in1006.8 mb 0.00 in0.0 mm 0.00 in0.0 mm 0.00 in0.0 mm
12:50 AM 40.4°F4.7°C 35.4°F1.9°C 82% 6.0 mph NW9.7 kmh NW 8.0 mph12.9 kmh 29.73 in1006.8 mb 0.00 in0.0 mm 0.00 in0.0 mm 0.00 in0.0 mm
12:55 AM 40.1°F4.5°C 34.8°F1.6°C 81% 4.0 mph NW6.4 kmh NW 12.0 mph19.3 kmh 29.73 in1006.8 mb 0.00 in0.0 mm 0.00 in0.0 mm 0.00 in0.0 mm
01:00 AM 39.9°F4.4°C 34.6°F1.4°C 81% 6.0 mph NNW9.7 kmh NNW 12.0 mph19.3 kmh 29.73 in1006.8 mb 0.00 in0.0 mm 0.00 in0.0 mm 0.00 in0.0 mm
01:05 AM 39.6°F4.2°C 34.0°F1.1°C 80% 9.0 mph NNW14.5 kmh NNW 10.0 mph16.1 kmh 29.73 in1006.8 mb 0.00 in0.0 mm 0.00 in0.0 mm 0.00 in0.0 mm
01:10 AM 39.4°F4.1°C 33.8°F1.0°C 80% 7.0 mph NW11.3 kmh NW 12.0 mph19.3 kmh 29.74 in1007.1 mb 0.00 in0.0 mm 0.00 in0.0 mm 0.00 in0.0 mm
01:15 AM 39.3°F4.1°C 33.3°F0.7°C 79% 6.0 mph NW9.7 kmh NW 12.0 mph19.3 kmh 29.74 in1007.1 mb 0.00 in0.0 mm 0.00 in0.0 mm 0.00 in0.0 mm
01:20 AM 39.2°F4.0°C 33.3°F0.7°C 79% 5.0 mph NW8.0 kmh NW 11.0 mph17.7 kmh 29.74 in1007.1 mb 0.00 in0.0 mm 0.00 in0.0 mm 0.00 in0.0 mm
01:25 AM 39.1°F3.9°C 32.8°F0.4°C 78% 4.0 mph NW6.4 kmh NW 11.0 mph17.7 kmh 29.73 in1006.8 mb 0.00 in0.0 mm 0.00 in0.0 mm 0.00 in0.0 mm
01:30 AM 39.1°F3.9°C 32.8°F0.4°C 78% 8.0 mph WNW12.9 kmh WNW 12.0 mph19.3 kmh 29.73 in1006.8 mb 0.00 in0.0 mm 0.00 in0.0 mm 0.00 in0.0 mm
01:35 AM 39.0°F3.9°C 32.7°F0.4°C 78% 5.0 mph NW8.0 kmh NW 9.0 mph14.5 kmh 29.74 in1007.1 mb 0.00 in0.0 mm 0.00 in0.0 mm 0.00 in0.0 mm
01:40 AM 39.0°F3.9°C 32.7°F0.4°C 78% 6.0 mph NW9.7 kmh NW 9.0 mph14.5 kmh 29.73 in1006.8 mb 0.00 in0.0 mm 0.00 in0.0 mm 0.00 in0.0 mm
01:45 AM 38.9°F3.8°C 32.6°F0.3°C 78% 7.0 mph WNW11.3 kmh WNW 13.0 mph20.9 kmh 29.73 in1006.8 mb 0.00 in0.0 mm 0.00 in0.0 mm 0.00 in0.0 mm
01:50 AM 38.8°F3.8°C 32.5°F0.3°C 78% 8.0 mph NW12.9 kmh NW 14.0 mph22.5 kmh 29.73 in1006.8 mb 0.00 in0.0 mm 0.00 in0.0 mm 0.00 in0.0 mm
01:55 AM 38.6°F3.7°C 32.0°F0.0°C 77% 8.0 mph NW12.9 kmh NW 14.0 mph22.5 kmh 29.73 in1006.8 mb 0.00 in0.0 mm 0.00 in0.0 mm 0.00 in0.0 mm
02:00 AM 38.5°F3.6°C 32.3°F0.2°C 78% 7.0 mph WNW11.3 kmh WNW 14.0 mph22.5 kmh 29.74 in1007.1 mb 0.00 in0.0 mm 0.00 in0.0 mm 0.00 in0.0 mm
02:05 AM 38.3°F3.5°C 32.1°F0.1°C 78% 2.0 mph W3.2 kmh W 7.0 mph11.3 kmh 29.74 in1007.1 mb 0.00 in0.0 mm 0.00 in0.0 mm 0.00 in0.0 mm
02:10 AM 38.1°F3.4°C 31.9°F-0.1°C 78% 4.0 mph NW6.4 kmh NW 10.0 mph16.1 kmh 29.74 in1007.1 mb 0.00 in0.0 mm 0.00 in0.0 mm 0.00 in0.0 mm
02:15 AM 37.9°F3.3°C 32.0°F0.0°C 79% 2.0 mph WNW3.2 kmh WNW 10.0 mph16.1 kmh 29.75 in1007.5 mb 0.00 in0.0 mm 0.00 in0.0 mm 0.00 in0.0 mm
02:20 AM 37.7°F3.2°C 31.8°F-0.1°C 79% 5.0 mph WNW8.0 kmh WNW 7.0 mph11.3 kmh 29.75 in1007.5 mb 0.00 in0.0 mm 0.00 in0.0 mm 0.00 in0.0 mm
02:25 AM 37.5°F3.1°C 31.6°F-0.2°C 79% 6.0 mph NW9.7 kmh NW 9.0 mph14.5 kmh 29.75 in1007.5 mb 0.00 in0.0 mm 0.00 in0.0 mm 0.00 in0.0 mm
02:30 AM 37.4°F3.0°C 31.5°F-0.3°C 79% 4.0 mph NW6.4 kmh NW 11.0 mph17.7 kmh 29.75 in1007.5 mb 0.00 in0.0 mm 0.00 in0.0 mm 0.00 in0.0 mm
02:35 AM 37.2°F2.9°C 31.6°F-0.2°C 80% 5.0 mph NW8.0 kmh NW 11.0 mph17.7 kmh 29.75 in1007.5 mb 0.00 in0.0 mm 0.00 in0.0 mm 0.00 in0.0 mm
02:40 AM 37.0°F2.8°C 31.4°F-0.3°C 80% 7.0 mph NW11.3 kmh NW 13.0 mph20.9 kmh 29.75 in1007.5 mb 0.00 in0.0 mm 0.00 in0.0 mm 0.00 in0.0 mm
02:45 AM 36.7°F2.6°C 31.1°F-0.5°C 80% 8.0 mph W12.9 kmh W 13.0 mph20.9 kmh 29.76 in1007.8 mb 0.00 in0.0 mm 0.00 in0.0 mm 0.00 in0.0 mm
02:50 AM 36.5°F2.5°C 30.9°F-0.6°C 80% 3.0 mph W4.8 kmh W 8.0 mph12.9 kmh 29.76 in1007.8 mb 0.00 in0.0 mm 0.00 in0.0 mm 0.00 in0.0 mm
02:55 AM 36.2°F2.3°C 30.6°F-0.8°C 80% 5.0 mph W8.0 kmh W 13.0 mph20.9 kmh 29.75 in1007.5 mb 0.00 in0.0 mm 0.00 in0.0 mm 0.00 in0.0 mm
03:00 AM 35.9°F2.2°C 30.3°F-0.9°C 80% 5.0 mph NW8.0 kmh NW 13.0 mph20.9 kmh 29.75 in1007.5 mb 0.00 in0.0 mm 0.00 in0.0 mm 0.00 in0.0 mm
03:05 AM 35.8°F2.1°C 30.3°F-0.9°C 80% 4.0 mph NW6.4 kmh NW 10.0 mph16.1 kmh 29.75 in1007.5 mb 0.00 in0.0 mm 0.00 in0.0 mm 0.00 in0.0 mm
03:10 AM 35.5°F1.9°C 30.3°F-0.9°C 81% 7.0 mph NW11.3 kmh NW 12.0 mph19.3 kmh 29.74 in1007.1 mb 0.00 in0.0 mm 0.00 in0.0 mm 0.00 in0.0 mm
03:15 AM 35.3°F1.8°C 30.1°F-1.1°C 81% 2.0 mph WNW3.2 kmh WNW 12.0 mph19.3 kmh 29.75 in1007.5 mb 0.00 in0.0 mm 0.00 in0.0 mm 0.00 in0.0 mm
03:20 AM 35.2°F1.8°C 30.3°F-0.9°C 82% 4.0 mph WNW6.4 kmh WNW 5.0 mph8.0 kmh 29.75 in1007.5 mb 0.00 in0.0 mm 0.00 in0.0 mm 0.00 in0.0 mm
03:25 AM 35.0°F1.7°C 30.1°F-1.1°C 82% 4.0 mph WNW6.4 kmh WNW 9.0 mph14.5 kmh 29.75 in1007.5 mb 0.00 in0.0 mm 0.00 in0.0 mm 0.00 in0.0 mm
03:30 AM 34.9°F1.6°C 30.0°F-1.1°C 82% 5.0 mph NW8.0 kmh NW 9.0 mph14.5 kmh 29.75 in1007.5 mb 0.00 in0.0 mm 0.00 in0.0 mm 0.00 in0.0 mm
03:35 AM 34.8°F1.6°C 30.2°F-1.0°C 83% 4.0 mph NW6.4 kmh NW 7.0 mph11.3 kmh 29.75 in1007.5 mb 0.00 in0.0 mm 0.00 in0.0 mm 0.00 in0.0 mm
03:40 AM 34.7°F1.5°C 30.1°F-1.1°C 83% 4.0 mph WNW6.4 kmh WNW 7.0 mph11.3 kmh 29.75 in1007.5 mb 0.00 in0.0 mm 0.00 in0.0 mm 0.00 in0.0 mm
03:45 AM 34.5°F1.4°C 29.9°F-1.2°C 83% 7.0 mph WNW11.3 kmh WNW 8.0 mph12.9 kmh 29.75 in1007.5 mb 0.00 in0.0 mm 0.00 in0.0 mm 0.00 in0.0 mm
03:50 AM 34.5°F1.4°C 30.2°F-1.0°C 84% 5.0 mph NW8.0 kmh NW 8.0 mph12.9 kmh 29.76 in1007.8 mb 0.00 in0.0 mm 0.00 in0.0 mm 0.00 in0.0 mm
03:55 AM 34.5°F1.4°C 30.2°F-1.0°C 84% 1.0 mph NW1.6 kmh NW 8.0 mph12.9 kmh 29.76 in1007.8 mb 0.00 in0.0 mm 0.00 in0.0 mm 0.00 in0.0 mm
04:00 AM 34.4°F1.3°C 30.1°F-1.1°C 84% 3.0 mph NW4.8 kmh NW 8.0 mph12.9 kmh 29.76 in1007.8 mb 0.00 in0.0 mm 0.00 in0.0 mm 0.00 in0.0 mm
04:05 AM 34.3°F1.3°C 30.0°F-1.1°C 84% 4.0 mph NW6.4 kmh NW 6.0 mph9.7 kmh 29.76 in1007.8 mb 0.00 in0.0 mm 0.00 in0.0 mm 0.00 in0.0 mm
04:10 AM 34.1°F1.2°C 29.8°F-1.2°C 84% 2.0 mph NW3.2 kmh NW 6.0 mph9.7 kmh 29.76 in1007.8 mb 0.00 in0.0 mm 0.00 in0.0 mm 0.00 in0.0 mm
04:15 AM 34.0°F1.1°C 29.4°F-1.4°C 83% 2.0 mph NW3.2 kmh NW 6.0 mph9.7 kmh 29.76 in1007.8 mb 0.00 in0.0 mm 0.00 in0.0 mm 0.00 in0.0 mm
04:20 AM 33.9°F1.1°C 29.3°F-1.5°C 83% 4.0 mph WNW6.4 kmh WNW 9.0 mph14.5 kmh 29.76 in1007.8 mb 0.00 in0.0 mm 0.00 in0.0 mm 0.00 in0.0 mm
04:25 AM 33.8°F1.0°C 29.5°F-1.4°C 84% 13.0 mph NW20.9 kmh NW 13.0 mph20.9 kmh 29.76 in1007.8 mb 0.00 in0.0 mm 0.00 in0.0 mm 0.00 in0.0 mm
04:30 AM 34.0°F1.1°C 29.4°F-1.4°C 83% 6.0 mph NW9.7 kmh NW 13.0 mph20.9 kmh 29.77 in1008.1 mb 0.00 in0.0 mm 0.00 in0.0 mm 0.00 in0.0 mm
04:35 AM 34.1°F1.2°C 29.5°F-1.4°C 83% 6.0 mph NW9.7 kmh NW 8.0 mph12.9 kmh 29.76 in1007.8 mb 0.00 in0.0 mm 0.00 in0.0 mm 0.00 in0.0 mm
04:40 AM 34.1°F1.2°C 29.2°F-1.6°C 82% 5.0 mph NW8.0 kmh NW 10.0 mph16.1 kmh 29.76 in1007.8 mb 0.00 in0.0 mm 0.00 in0.0 mm 0.00 in0.0 mm
04:45 AM 34.1°F1.2°C 29.2°F-1.6°C 82% 6.0 mph WNW9.7 kmh WNW 10.0 mph16.1 kmh 29.77 in1008.1 mb 0.00 in0.0 mm 0.00 in0.0 mm 0.00 in0.0 mm
04:50 AM 34.1°F1.2°C 29.2°F-1.6°C 82% 5.0 mph WNW8.0 kmh WNW 9.0 mph14.5 kmh 29.77 in1008.1 mb 0.00 in0.0 mm 0.00 in0.0 mm 0.00 in0.0 mm
04:55 AM 34.0°F1.1°C 29.1°F-1.6°C 82% 5.0 mph W8.0 kmh W 9.0 mph14.5 kmh 29.77 in1008.1 mb 0.00 in0.0 mm 0.00 in0.0 mm 0.00 in0.0 mm
05:00 AM 34.0°F1.1°C 29.4°F-1.4°C 83% Calm Calm 9.0 mph14.5 kmh 29.77 in1008.1 mb 0.00 in0.0 mm 0.00 in0.0 mm 0.00 in0.0 mm
05:05 AM 33.9°F1.1°C 29.3°F-1.5°C 83% 3.0 mph W4.8 kmh W 10.0 mph16.1 kmh 29.78 in1008.5 mb 0.00 in0.0 mm 0.00 in0.0 mm 0.00 in0.0 mm
05:10 AM 33.8°F1.0°C 29.2°F-1.6°C 83% 2.0 mph WNW3.2 kmh WNW 10.0 mph16.1 kmh 29.78 in1008.5 mb 0.00 in0.0 mm 0.00 in0.0 mm 0.00 in0.0 mm
05:15 AM 33.8°F1.0°C 29.2°F-1.6°C 83% 2.0 mph W3.2 kmh W 10.0 mph16.1 kmh 29.78 in1008.5 mb 0.00 in0.0 mm 0.00 in0.0 mm 0.00 in0.0 mm
05:20 AM 33.7°F0.9°C 29.1°F-1.6°C 83% 6.0 mph W9.7 kmh W 10.0 mph16.1 kmh 29.78 in1008.5 mb 0.00 in0.0 mm 0.00 in0.0 mm 0.00 in0.0 mm
05:25 AM 33.8°F1.0°C 29.2°F-1.6°C 83% 5.0 mph NW8.0 kmh NW 11.0 mph17.7 kmh 29.78 in1008.5 mb 0.00 in0.0 mm 0.00 in0.0 mm 0.00 in0.0 mm
05:30 AM 33.9°F1.1°C 29.3°F-1.5°C 83% 4.0 mph WNW6.4 kmh WNW 11.0 mph17.7 kmh 29.77 in1008.1 mb 0.00 in0.0 mm 0.00 in0.0 mm 0.00 in0.0 mm
05:35 AM 34.0°F1.1°C 29.4°F-1.4°C 83% 7.0 mph NW11.3 kmh NW 13.0 mph20.9 kmh 29.77 in1008.1 mb 0.00 in0.0 mm 0.00 in0.0 mm 0.00 in0.0 mm
05:40 AM 34.0°F1.1°C 29.4°F-1.4°C 83% 12.0 mph NW19.3 kmh NW 13.0 mph20.9 kmh 29.77 in1008.1 mb 0.00 in0.0 mm 0.00 in0.0 mm 0.00 in0.0 mm
05:45 AM 34.0°F1.1°C 29.4°F-1.4°C 83% 5.0 mph NW8.0 kmh NW 13.0 mph20.9 kmh 29.78 in1008.5 mb 0.00 in0.0 mm 0.00 in0.0 mm 0.00 in0.0 mm
05:50 AM 33.9°F1.1°C 29.3°F-1.5°C 83% 10.0 mph NW16.1 kmh NW 16.0 mph25.7 kmh 29.78 in1008.5 mb 0.00 in0.0 mm 0.00 in0.0 mm 0.00 in0.0 mm
05:55 AM 33.9°F1.1°C 29.3°F-1.5°C 83% 5.0 mph WSW8.0 kmh WSW 16.0 mph25.7 kmh 29.78 in1008.5 mb 0.00 in0.0 mm 0.00 in0.0 mm 0.00 in0.0 mm
06:00 AM 33.9°F1.1°C 29.3°F-1.5°C 83% 6.0 mph NW9.7 kmh NW 16.0 mph25.7 kmh 29.79 in1008.8 mb 0.00 in0.0 mm 0.00 in0.0 mm 0.00 in0.0 mm
06:05 AM 33.9°F1.1°C 29.3°F-1.5°C 83% 7.0 mph W11.3 kmh W 11.0 mph17.7 kmh 29.79 in1008.8 mb 0.00 in0.0 mm 0.00 in0.0 mm 0.00 in0.0 mm
06:10 AM 33.9°F1.1°C 29.3°F-1.5°C 83% 5.0 mph NW8.0 kmh NW 11.0 mph17.7 kmh 29.79 in1008.8 mb 0.00 in0.0 mm 0.00 in0.0 mm 0.00 in0.0 mm
06:15 AM 33.8°F1.0°C 29.2°F-1.6°C 83% 6.0 mph NW9.7 kmh NW 11.0 mph17.7 kmh 29.79 in1008.8 mb 0.00 in0.0 mm 0.00 in0.0 mm 0.00 in0.0 mm
06:20 AM 33.8°F1.0°C 29.2°F-1.6°C 83% 8.0 mph NW12.9 kmh NW 11.0 mph17.7 kmh 29.80 in1009.1 mb 0.00 in0.0 mm 0.00 in0.0 mm 0.00 in0.0 mm
06:25 AM 33.9°F1.1°C 29.3°F-1.5°C 83% 10.0 mph W16.1 kmh W 11.0 mph17.7 kmh 29.80 in1009.1 mb 0.00 in0.0 mm 0.00 in0.0 mm 0.00 in0.0 mm
06:30 AM 33.9°F1.1°C 29.3°F-1.5°C 83% 6.0 mph NW9.7 kmh NW 11.0 mph17.7 kmh 29.80 in1009.1 mb 0.00 in0.0 mm 0.00 in0.0 mm 0.00 in0.0 mm
06:35 AM 34.0°F1.1°C 29.4°F-1.4°C 83% 4.0 mph W6.4 kmh W 10.0 mph16.1 kmh 29.80 in1009.1 mb 0.00 in0.0 mm 0.00 in0.0 mm 0.00 in0.0 mm
06:40 AM 34.0°F1.1°C 29.4°F-1.4°C 83% 7.0 mph WNW11.3 kmh WNW 12.0 mph19.3 kmh 29.80 in1009.1 mb 0.00 in0.0 mm 0.00 in0.0 mm 0.00 in0.0 mm
06:45 AM 34.1°F1.2°C 29.5°F-1.4°C 83% 9.0 mph NW14.5 kmh NW 15.0 mph24.1 kmh 29.80 in1009.1 mb 0.00 in0.0 mm 0.00 in0.0 mm 0.00 in0.0 mm
06:50 AM 34.1°F1.2°C 29.5°F-1.4°C 83% 8.0 mph NW12.9 kmh NW 13.0 mph20.9 kmh 29.81 in1009.5 mb 0.00 in0.0 mm 0.00 in0.0 mm 0.00 in0.0 mm
06:55 AM 34.2°F1.2°C 29.6°F-1.3°C 83% 13.0 mph WNW20.9 kmh WNW 14.0 mph22.5 kmh 29.81 in1009.5 mb 0.00 in0.0 mm 0.00 in0.0 mm 0.00 in0.0 mm
07:00 AM 34.3°F1.3°C 29.7°F-1.3°C 83% 5.0 mph WNW8.0 kmh WNW 14.0 mph22.5 kmh 29.81 in1009.5 mb 0.00 in0.0 mm 0.00 in0.0 mm 0.00 in0.0 mm
07:05 AM 34.3°F1.3°C 29.7°F-1.3°C 83% 5.0 mph WSW8.0 kmh WSW 15.0 mph24.1 kmh 29.81 in1009.5 mb 0.00 in0.0 mm 0.00 in0.0 mm 0.00 in0.0 mm
07:10 AM 34.3°F1.3°C 29.7°F-1.3°C 83% 9.0 mph WSW14.5 kmh WSW 15.0 mph24.1 kmh 29.82 in1009.8 mb 0.00 in0.0 mm 0.00 in0.0 mm 0.00 in0.0 mm
07:15 AM 34.3°F1.3°C 29.4°F-1.4°C 82% 11.0 mph WNW17.7 kmh WNW 15.0 mph24.1 kmh 29.83 in1010.2 mb 0.00 in0.0 mm 0.00 in0.0 mm 0.00 in0.0 mm
07:20 AM 34.3°F1.3°C 29.4°F-1.4°C 82% 14.0 mph WNW22.5 kmh WNW 14.0 mph22.5 kmh 29.83 in1010.2 mb 0.00 in0.0 mm 0.00 in0.0 mm 0.00 in0.0 mm
07:25 AM 34.4°F1.3°C 29.5°F-1.4°C 82% 7.0 mph WNW11.3 kmh WNW 14.0 mph22.5 kmh 29.83 in1010.2 mb 0.00 in0.0 mm 0.00 in0.0 mm 0.00 in0.0 mm
07:30 AM 34.4°F1.3°C 29.5°F-1.4°C 82% 7.0 mph NW11.3 kmh NW 14.0 mph22.5 kmh 29.83 in1010.2 mb 0.00 in0.0 mm 0.00 in0.0 mm 0.00 in0.0 mm
07:35 AM 34.3°F1.3°C 29.4°F-1.4°C 82% 6.0 mph NW9.7 kmh NW 14.0 mph22.5 kmh 29.84 in1010.5 mb 0.00 in0.0 mm 0.00 in0.0 mm 0.00 in0.0 mm
07:40 AM 34.2°F1.2°C 29.3°F-1.5°C 82% 6.0 mph W9.7 kmh W 19.0 mph30.6 kmh 29.84 in1010.5 mb 0.00 in0.0 mm 0.00 in0.0 mm 0.00 in0.0 mm
07:45 AM 34.1°F1.2°C 29.2°F-1.6°C 82% 8.0 mph NW12.9 kmh NW 19.0 mph30.6 kmh 29.84 in1010.5 mb 0.00 in0.0 mm 0.00 in0.0 mm 0.00 in0.0 mm
07:50 AM 34.1°F1.2°C 29.2°F-1.6°C 82% 7.0 mph WSW11.3 kmh WSW 18.0 mph29.0 kmh 29.84 in1010.5 mb 0.00 in0.0 mm 0.00 in0.0 mm 0.00 in0.0 mm
07:55 AM 34.1°F1.2°C 29.2°F-1.6°C 82% 14.0 mph W22.5 kmh W 18.0 mph29.0 kmh 29.85 in1010.8 mb 0.00 in0.0 mm 0.00 in0.0 mm 0.00 in0.0 mm
08:00 AM 34.1°F1.2°C 29.2°F-1.6°C 82% 10.0 mph NW16.1 kmh NW 18.0 mph29.0 kmh 29.85 in1010.8 mb 0.00 in0.0 mm 0.00 in0.0 mm 0.00 in0.0 mm
08:05 AM 34.1°F1.2°C 29.2°F-1.6°C 82% 11.0 mph NW17.7 kmh NW 16.0 mph25.7 kmh 29.85 in1010.8 mb 0.00 in0.0 mm 0.00 in0.0 mm 0.00 in0.0 mm
08:10 AM 34.1°F1.2°C 29.2°F-1.6°C 82% 8.0 mph NW12.9 kmh NW 17.0 mph27.4 kmh 29.85 in1010.8 mb 0.00 in0.0 mm 0.00 in0.0 mm 0.00 in0.0 mm
08:15 AM 34.2°F1.2°C 29.3°F-1.5°C 82% 9.0 mph NW14.5 kmh NW 20.0 mph32.2 kmh 29.85 in1010.8 mb 0.00 in0.0 mm 0.00 in0.0 mm 0.00 in0.0 mm
08:20 AM 34.2°F1.2°C 29.3°F-1.5°C 82% 7.0 mph W11.3 kmh W 18.0 mph29.0 kmh 29.85 in1010.8 mb 0.00 in0.0 mm 0.00 in0.0 mm 0.00 in0.0 mm
08:25 AM 34.3°F1.3°C 29.4°F-1.4°C 82% 12.0 mph WNW19.3 kmh WNW 23.0 mph37.0 kmh 29.85 in1010.8 mb 0.00 in0.0 mm 0.00 in0.0 mm 0.00 in0.0 mm
08:30 AM 34.4°F1.3°C 29.2°F-1.6°C 81% 15.0 mph NNW24.1 kmh NNW 23.0 mph37.0 kmh 29.85 in1010.8 mb 0.00 in0.0 mm 0.00 in0.0 mm 0.00 in0.0 mm
08:35 AM 34.3°F1.3°C 29.1°F-1.6°C 81% 11.0 mph WSW17.7 kmh WSW 19.0 mph30.6 kmh 29.86 in1011.2 mb 0.00 in0.0 mm 0.00 in0.0 mm 0.00 in0.0 mm
08:40 AM 34.2°F1.2°C 29.0°F-1.7°C 81% 8.0 mph NW12.9 kmh NW 19.0 mph30.6 kmh 29.86 in1011.2 mb 0.00 in0.0 mm 0.00 in0.0 mm 0.00 in0.0 mm
08:45 AM 34.1°F1.2°C 29.2°F-1.6°C 82% 5.0 mph WNW8.0 kmh WNW 19.0 mph30.6 kmh 29.87 in1011.5 mb 0.00 in0.0 mm 0.00 in0.0 mm 0.00 in0.0 mm
08:50 AM 34.0°F1.1°C 29.1°F-1.6°C 82% 9.0 mph WNW14.5 kmh WNW 17.0 mph27.4 kmh 29.87 in1011.5 mb 0.00 in0.0 mm 0.00 in0.0 mm 0.00 in0.0 mm
08:55 AM 34.0°F1.1°C 29.1°F-1.6°C 82% 9.0 mph NW14.5 kmh NW 18.0 mph29.0 kmh 29.87 in1011.5 mb 0.00 in0.0 mm 0.00 in0.0 mm 0.00 in0.0 mm
09:00 AM 34.0°F1.1°C 29.1°F-1.6°C 82% 11.0 mph WNW17.7 kmh WNW 19.0 mph30.6 kmh 29.88 in1011.9 mb 0.00 in0.0 mm 0.00 in0.0 mm 0.00 in0.0 mm
09:05 AM 34.0°F1.1°C 29.1°F-1.6°C 82% 10.0 mph W16.1 kmh W 18.0 mph29.0 kmh 29.88 in1011.9 mb 0.00 in0.0 mm 0.00 in0.0 mm 0.00 in0.0 mm
09:10 AM 34.0°F1.1°C 29.1°F-1.6°C 82% 11.0 mph WNW17.7 kmh WNW 18.0 mph29.0 kmh 29.88 in1011.9 mb 0.00 in0.0 mm 0.00 in0.0 mm 0.00 in0.0 mm
09:15 AM 34.0°F1.1°C 29.1°F-1.6°C 82% 11.0 mph NW17.7 kmh NW 18.0 mph29.0 kmh 29.88 in1011.9 mb 0.00 in0.0 mm 0.00 in0.0 mm 0.00 in0.0 mm
09:20 AM 34.0°F1.1°C 29.1°F-1.6°C 82% 11.0 mph WSW17.7 kmh WSW 15.0 mph24.1 kmh 29.88 in1011.9 mb 0.00 in0.0 mm 0.00 in0.0 mm 0.00 in0.0 mm
09:25 AM 34.1°F1.2°C 29.2°F-1.6°C 82% 11.0 mph WNW17.7 kmh WNW 15.0 mph24.1 kmh 29.88 in1011.9 mb 0.00 in0.0 mm 0.00 in0.0 mm 0.00 in0.0 mm
09:30 AM 34.1°F1.2°C 28.9°F-1.7°C 81% 11.0 mph W17.7 kmh W 16.0 mph25.7 kmh 29.89 in1012.2 mb 0.00 in0.0 mm 0.00 in0.0 mm 0.00 in0.0 mm
09:35 AM 34.1°F1.2°C 28.9°F-1.7°C 81% 11.0 mph NW17.7 kmh NW 16.0 mph25.7 kmh 29.90 in1012.5 mb 0.00 in0.0 mm 0.00 in0.0 mm 0.00 in0.0 mm
09:40 AM 34.1°F1.2°C 28.9°F-1.7°C 81% 13.0 mph NW20.9 kmh NW 23.0 mph37.0 kmh 29.90 in1012.5 mb 0.00 in0.0 mm 0.00 in0.0 mm 0.00 in0.0 mm
09:45 AM 34.3°F1.3°C 29.1°F-1.6°C 81% 5.0 mph NW8.0 kmh NW 23.0 mph37.0 kmh 29.90 in1012.5 mb 0.00 in0.0 mm 0.00 in0.0 mm 0.00 in0.0 mm
09:50 AM 34.3°F1.3°C 29.1°F-1.6°C 81% 8.0 mph W12.9 kmh W 17.0 mph27.4 kmh 29.91 in1012.9 mb 0.00 in0.0 mm 0.00 in0.0 mm 0.00 in0.0 mm
09:55 AM 34.4°F1.3°C 29.2°F-1.6°C 81% 9.0 mph NW14.5 kmh NW 17.0 mph27.4 kmh 29.91 in1012.9 mb 0.00 in0.0 mm 0.00 in0.0 mm 0.00 in0.0 mm
10:00 AM 34.4°F1.3°C 29.2°F-1.6°C 81% 9.0 mph NW14.5 kmh NW 18.0 mph29.0 kmh 29.91 in1012.9 mb 0.00 in0.0 mm 0.00 in0.0 mm 0.00 in0.0 mm
10:05 AM 34.5°F1.4°C 29.3°F-1.5°C 81% 11.0 mph W17.7 kmh W 12.0 mph19.3 kmh 29.92 in1013.2 mb 0.00 in0.0 mm 0.00 in0.0 mm 0.00 in0.0 mm
10:10 AM 34.5°F1.4°C 29.3°F-1.5°C 81% 6.0 mph NW9.7 kmh NW 14.0 mph22.5 kmh 29.92 in1013.2 mb 0.00 in0.0 mm 0.00 in0.0 mm 0.00 in0.0 mm
10:15 AM 34.7°F1.5°C 29.5°F-1.4°C 81% 5.0 mph WNW8.0 kmh WNW 14.0 mph22.5 kmh 29.92 in1013.2 mb 0.00 in0.0 mm 0.00 in0.0 mm 0.00 in0.0 mm
10:20 AM 34.8°F1.6°C 29.6°F-1.3°C 81% 4.0 mph W6.4 kmh W 13.0 mph20.9 kmh 29.93 in1013.5 mb 0.00 in0.0 mm 0.00 in0.0 mm 0.00 in0.0 mm
10:25 AM 34.9°F1.6°C 29.7°F-1.3°C 81% 11.0 mph NW17.7 kmh NW 15.0 mph24.1 kmh 29.93 in1013.5 mb 0.00 in0.0 mm 0.00 in0.0 mm 0.00 in0.0 mm
10:30 AM 35.2°F1.8°C 29.7°F-1.3°C 80% 9.0 mph NW14.5 kmh NW 15.0 mph24.1 kmh 29.93 in1013.5 mb 0.00 in0.0 mm 0.00 in0.0 mm 0.00 in0.0 mm
10:35 AM 35.5°F1.9°C 29.6°F-1.3°C 79% 12.0 mph NW19.3 kmh NW 19.0 mph30.6 kmh 29.94 in1013.9 mb 0.00 in0.0 mm 0.00 in0.0 mm 0.00 in0.0 mm
10:40 AM 35.7°F2.1°C 29.8°F-1.2°C 79% 9.0 mph NW14.5 kmh NW 19.0 mph30.6 kmh 29.94 in1013.9 mb 0.00 in0.0 mm 0.00 in0.0 mm 0.00 in0.0 mm
10:45 AM 35.8°F2.1°C 29.6°F-1.3°C 78% 16.0 mph NW25.7 kmh NW 20.0 mph32.2 kmh 29.95 in1014.2 mb 0.00 in0.0 mm 0.00 in0.0 mm 0.00 in0.0 mm
10:50 AM 36.0°F2.2°C 29.8°F-1.2°C 78% 11.0 mph NW17.7 kmh NW 16.0 mph25.7 kmh 29.94 in1013.9 mb 0.00 in0.0 mm 0.00 in0.0 mm 0.00 in0.0 mm
10:55 AM 36.1°F2.3°C 29.9°F-1.2°C 78% 9.0 mph NW14.5 kmh NW 19.0 mph30.6 kmh 29.95 in1014.2 mb 0.00 in0.0 mm 0.00 in0.0 mm 0.00 in0.0 mm
11:00 AM 36.4°F2.4°C 29.9°F-1.2°C 77% 13.0 mph NW20.9 kmh NW 20.0 mph32.2 kmh 29.95 in1014.2 mb 0.00 in0.0 mm 0.00 in0.0 mm 0.00 in0.0 mm
11:05 AM 36.6°F2.6°C 30.1°F-1.1°C 77% 12.0 mph NW19.3 kmh NW 17.0 mph27.4 kmh 29.96 in1014.6 mb 0.00 in0.0 mm 0.00 in0.0 mm 0.00 in0.0 mm
11:10 AM 36.8°F2.7°C 30.0°F-1.1°C 76% 19.0 mph NW30.6 kmh NW 21.0 mph33.8 kmh 29.96 in1014.6 mb 0.00 in0.0 mm 0.00 in0.0 mm 0.00 in0.0 mm
11:15 AM 37.2°F2.9°C 30.0°F-1.1°C 75% 8.0 mph NW12.9 kmh NW 25.0 mph40.2 kmh 29.96 in1014.6 mb 0.00 in0.0 mm 0.00 in0.0 mm 0.00 in0.0 mm
11:20 AM 37.6°F3.1°C 30.1°F-1.1°C 74% 5.0 mph NW8.0 kmh NW 15.0 mph24.1 kmh 29.96 in1014.6 mb 0.00 in0.0 mm 0.00 in0.0 mm 0.00 in0.0 mm
11:25 AM 37.9°F3.3°C 30.4°F-0.9°C 74% 11.0 mph NW17.7 kmh NW 20.0 mph32.2 kmh 29.97 in1014.9 mb 0.00 in0.0 mm 0.00 in0.0 mm 0.00 in0.0 mm
11:30 AM 38.2°F3.4°C 30.7°F-0.7°C 74% 11.0 mph NNW17.7 kmh NNW 20.0 mph32.2 kmh 29.97 in1014.9 mb 0.00 in0.0 mm 0.00 in0.0 mm 0.00 in0.0 mm
11:35 AM 38.6°F3.7°C 30.7°F-0.7°C 73% 10.0 mph NW16.1 kmh NW 17.0 mph27.4 kmh 29.98 in1015.2 mb 0.00 in0.0 mm 0.00 in0.0 mm 0.00 in0.0 mm
11:40 AM 39.1°F3.9°C 30.5°F-0.8°C 71% 16.0 mph WNW25.7 kmh WNW 22.0 mph35.4 kmh 29.98 in1015.2 mb 0.00 in0.0 mm 0.00 in0.0 mm 0.00 in0.0 mm
11:45 AM 39.4°F4.1°C 30.1°F-1.1°C 69% 16.0 mph NW25.7 kmh NW 24.0 mph38.6 kmh 29.98 in1015.2 mb 0.00 in0.0 mm 0.00 in0.0 mm 0.00 in0.0 mm
11:50 AM 39.5°F4.2°C 30.2°F-1.0°C 69% 16.0 mph NW25.7 kmh NW 25.0 mph40.2 kmh 29.98 in1015.2 mb 0.00 in0.0 mm 0.00 in0.0 mm 0.00 in0.0 mm
11:55 AM 39.7°F4.3°C 30.0°F-1.1°C 68% 18.0 mph NW29.0 kmh NW 25.0 mph40.2 kmh 29.99 in1015.6 mb 0.00 in0.0 mm 0.00 in0.0 mm 0.00 in0.0 mm
12:00 PM 39.9°F4.4°C 30.2°F-1.0°C 68% 12.0 mph NW19.3 kmh NW 25.0 mph40.2 kmh 29.99 in1015.6 mb 0.00 in0.0 mm 0.00 in0.0 mm 0.00 in0.0 mm
12:05 PM 40.0°F4.4°C 29.9°F-1.2°C 67% 16.0 mph NW25.7 kmh NW 28.0 mph45.1 kmh 29.99 in1015.6 mb 0.00 in0.0 mm 0.00 in0.0 mm 0.00 in0.0 mm
12:10 PM 39.6°F4.2°C 29.2°F-1.6°C 66% 14.0 mph NW22.5 kmh NW 28.0 mph45.1 kmh 30.00 in1015.9 mb 0.00 in0.0 mm 0.00 in0.0 mm 0.00 in0.0 mm
12:15 PM 39.4°F4.1°C 29.7°F-1.3°C 68% 15.0 mph NW24.1 kmh NW 28.0 mph45.1 kmh 30.00 in1015.9 mb 0.00 in0.0 mm 0.00 in0.0 mm 0.00 in0.0 mm
12:20 PM 39.7°F4.3°C 29.7°F-1.3°C 67% 17.0 mph NW27.4 kmh NW 25.0 mph40.2 kmh 30.00 in1015.9 mb 0.00 in0.0 mm 0.00 in0.0 mm 0.00 in0.0 mm
12:25 PM 40.0°F4.4°C 29.6°F-1.3°C 66% 21.0 mph NW33.8 kmh NW 26.0 mph41.8 kmh 30.00 in1015.9 mb 0.00 in0.0 mm 0.00 in0.0 mm 0.00 in0.0 mm
12:30 PM 40.3°F4.6°C 29.5°F-1.4°C 65% 18.0 mph NW29.0 kmh NW 26.0 mph41.8 kmh 30.01 in1016.3 mb 0.00 in0.0 mm 0.00 in0.0 mm 0.00 in0.0 mm
12:35 PM 40.3°F4.6°C 29.5°F-1.4°C 65% 18.0 mph NW29.0 kmh NW 26.0 mph41.8 kmh 30.01 in1016.3 mb 0.00 in0.0 mm 0.00 in0.0 mm 0.00 in0.0 mm
12:40 PM 40.6°F4.8°C 29.4°F-1.4°C 64% 22.0 mph WNW35.4 kmh WNW 26.0 mph41.8 kmh 30.01 in1016.3 mb 0.00 in0.0 mm 0.00 in0.0 mm 0.00 in0.0 mm
12:45 PM 40.5°F4.7°C 28.9°F-1.7°C 63% 16.0 mph NW25.7 kmh NW 28.0 mph45.1 kmh 30.01 in1016.3 mb 0.00 in0.0 mm 0.00 in0.0 mm 0.00 in0.0 mm
12:50 PM 40.6°F4.8°C 27.8°F-2.3°C 60% 10.0 mph NW16.1 kmh NW 30.0 mph48.3 kmh 30.01 in1016.3 mb 0.00 in0.0 mm 0.00 in0.0 mm 0.00 in0.0 mm
12:55 PM 40.7°F4.8°C 28.7°F-1.8°C 62% 17.0 mph NW27.4 kmh NW 30.0 mph48.3 kmh 30.02 in1016.6 mb 0.00 in0.0 mm 0.00 in0.0 mm 0.00 in0.0 mm
01:00 PM 40.9°F4.9°C 28.5°F-1.9°C 61% 22.0 mph NW35.4 kmh NW 30.0 mph48.3 kmh 30.02 in1016.6 mb 0.00 in0.0 mm 0.00 in0.0 mm 0.00 in0.0 mm
01:05 PM 40.4°F4.7°C 28.4°F-2.0°C 62% 13.0 mph W20.9 kmh W 24.0 mph38.6 kmh 30.02 in1016.6 mb 0.00 in0.0 mm 0.00 in0.0 mm 0.00 in0.0 mm
01:10 PM 40.6°F4.8°C 29.0°F-1.7°C 63% 15.0 mph NW24.1 kmh NW 24.0 mph38.6 kmh 30.02 in1016.6 mb 0.00 in0.0 mm 0.00 in0.0 mm 0.00 in0.0 mm
01:15 PM 40.8°F4.9°C 28.8°F-1.8°C 62% 13.0 mph NW20.9 kmh NW 25.0 mph40.2 kmh 30.02 in1016.6 mb 0.00 in0.0 mm 0.00 in0.0 mm 0.00 in0.0 mm
01:20 PM 41.0°F5.0°C 28.6°F-1.9°C 61% 12.0 mph WNW19.3 kmh WNW 23.0 mph37.0 kmh 30.03 in1016.9 mb 0.00 in0.0 mm 0.00 in0.0 mm 0.00 in0.0 mm
01:25 PM 41.2°F5.1°C 28.8°F-1.8°C 61% 14.0 mph NW22.5 kmh NW 24.0 mph38.6 kmh 30.02 in1016.6 mb 0.00 in0.0 mm 0.00 in0.0 mm 0.00 in0.0 mm
01:30 PM 41.1°F5.1°C 28.7°F-1.8°C 61% 19.0 mph WNW30.6 kmh WNW 24.0 mph38.6 kmh 30.03 in1016.9 mb 0.00 in0.0 mm 0.00 in0.0 mm 0.00 in0.0 mm
01:40 PM 41.2°F5.1°C 28.4°F-2.0°C 60% 20.0 mph NW32.2 kmh NW 31.0 mph49.9 kmh 30.04 in1017.3 mb 0.00 in0.0 mm 0.00 in0.0 mm 0.00 in0.0 mm
01:45 PM 41.4°F5.2°C 27.8°F-2.3°C 58% 21.0 mph NNW33.8 kmh NNW 31.0 mph49.9 kmh 30.04 in1017.3 mb 0.00 in0.0 mm 0.00 in0.0 mm 0.00 in0.0 mm
01:50 PM 41.5°F5.3°C 27.8°F-2.3°C 58% 20.0 mph NW32.2 kmh NW 25.0 mph40.2 kmh 30.04 in1017.3 mb 0.00 in0.0 mm 0.00 in0.0 mm 0.00 in0.0 mm
01:55 PM 41.6°F5.3°C 28.4°F-2.0°C 59% 19.0 mph NW30.6 kmh NW 25.0 mph40.2 kmh 30.04 in1017.3 mb 0.00 in0.0 mm 0.00 in0.0 mm 0.00 in0.0 mm
02:00 PM 41.8°F5.4°C 28.1°F-2.2°C 58% 10.0 mph NW16.1 kmh NW 25.0 mph40.2 kmh 30.05 in1017.6 mb 0.00 in0.0 mm 0.00 in0.0 mm 0.00 in0.0 mm
02:05 PM 42.2°F5.7°C 28.5°F-1.9°C 58% 14.0 mph NW22.5 kmh NW 23.0 mph37.0 kmh 30.05 in1017.6 mb 0.00 in0.0 mm 0.00 in0.0 mm 0.00 in0.0 mm
02:10 PM 42.8°F6.0°C 29.5°F-1.4°C 59% 12.0 mph NW19.3 kmh NW 23.0 mph37.0 kmh 30.05 in1017.6 mb 0.00 in0.0 mm 0.00 in0.0 mm 0.00 in0.0 mm
02:15 PM 42.9°F6.1°C 29.2°F-1.6°C 58% 18.0 mph NW29.0 kmh NW 23.0 mph37.0 kmh 30.05 in1017.6 mb 0.00 in0.0 mm 0.00 in0.0 mm 0.00 in0.0 mm
02:20 PM 42.7°F5.9°C 28.5°F-1.9°C 57% 17.0 mph NW27.4 kmh NW 22.0 mph35.4 kmh 30.05 in1017.6 mb 0.00 in0.0 mm 0.00 in0.0 mm 0.00 in0.0 mm
02:25 PM 42.7°F5.9°C 29.4°F-1.4°C 59% 17.0 mph NW27.4 kmh NW 24.0 mph38.6 kmh 30.05 in1017.6 mb 0.00 in0.0 mm 0.00 in0.0 mm 0.00 in0.0 mm
02:30 PM 42.8°F6.0°C 28.2°F-2.1°C 56% 17.0 mph NW27.4 kmh NW 24.0 mph38.6 kmh 30.05 in1017.6 mb 0.00 in0.0 mm 0.00 in0.0 mm 0.00 in0.0 mm
02:35 PM 42.6°F5.9°C 28.0°F-2.2°C 56% 15.0 mph NW24.1 kmh NW 23.0 mph37.0 kmh 30.05 in1017.6 mb 0.00 in0.0 mm 0.00 in0.0 mm 0.00 in0.0 mm
02:40 PM 42.2°F5.7°C 26.8°F-2.9°C 54% 14.0 mph NW22.5 kmh NW 24.0 mph38.6 kmh 30.05 in1017.6 mb 0.00 in0.0 mm 0.00 in0.0 mm 0.00 in0.0 mm
02:45 PM 42.1°F5.6°C 26.7°F-2.9°C 54% 18.0 mph NW29.0 kmh NW 24.0 mph38.6 kmh 30.06 in1017.9 mb 0.00 in0.0 mm 0.00 in0.0 mm 0.00 in0.0 mm
02:50 PM 41.5°F5.3°C 25.2°F-3.8°C 52% 17.0 mph NW27.4 kmh NW 21.0 mph33.8 kmh 30.06 in1017.9 mb 0.00 in0.0 mm 0.00 in0.0 mm 0.00 in0.0 mm
02:55 PM 41.3°F5.2°C 25.9°F-3.4°C 54% 19.0 mph NW30.6 kmh NW 21.0 mph33.8 kmh 30.06 in1017.9 mb 0.00 in0.0 mm 0.00 in0.0 mm 0.00 in0.0 mm
03:00 PM 41.7°F5.4°C 26.3°F-3.2°C 54% 9.0 mph NW14.5 kmh NW 24.0 mph38.6 kmh 30.06 in1017.9 mb 0.00 in0.0 mm 0.00 in0.0 mm 0.00 in0.0 mm
03:05 PM 41.6°F5.3°C 25.8°F-3.4°C 53% 16.0 mph NW25.7 kmh NW 23.0 mph37.0 kmh 30.06 in1017.9 mb 0.00 in0.0 mm 0.00 in0.0 mm 0.00 in0.0 mm
03:10 PM 41.5°F5.3°C 25.7°F-3.5°C 53% 14.0 mph NW22.5 kmh NW 24.0 mph38.6 kmh 30.06 in1017.9 mb 0.00 in0.0 mm 0.00 in0.0 mm 0.00 in0.0 mm
03:15 PM 41.2°F5.1°C 25.4°F-3.7°C 53% 14.0 mph NW22.5 kmh NW 24.0 mph38.6 kmh 30.06 in1017.9 mb 0.00 in0.0 mm 0.00 in0.0 mm 0.00 in0.0 mm
03:20 PM 41.9°F5.5°C 26.5°F-3.1°C 54% 13.0 mph NW20.9 kmh NW 21.0 mph33.8 kmh 30.07 in1018.3 mb 0.00 in0.0 mm 0.00 in0.0 mm 0.00 in0.0 mm
03:25 PM 42.7°F5.9°C 26.8°F-2.9°C 53% 9.0 mph NW14.5 kmh NW 21.0 mph33.8 kmh 30.07 in1018.3 mb 0.00 in0.0 mm 0.00 in0.0 mm 0.00 in0.0 mm
03:30 PM 43.0°F6.1°C 26.6°F-3.0°C 52% 17.0 mph NW27.4 kmh NW 21.0 mph33.8 kmh 30.07 in1018.3 mb 0.00 in0.0 mm 0.00 in0.0 mm 0.00 in0.0 mm
03:35 PM 43.0°F6.1°C 26.6°F-3.0°C 52% 15.0 mph NNW24.1 kmh NNW 23.0 mph37.0 kmh 30.07 in1018.3 mb 0.00 in0.0 mm 0.00 in0.0 mm 0.00 in0.0 mm
03:40 PM 43.4°F6.3°C 27.9°F-2.3°C 54% 17.0 mph NW27.4 kmh NW 23.0 mph37.0 kmh 30.07 in1018.3 mb 0.00 in0.0 mm 0.00 in0.0 mm 0.00 in0.0 mm
03:45 PM 43.0°F6.1°C 27.5°F-2.5°C 54% 13.0 mph NW20.9 kmh NW 24.0 mph38.6 kmh 30.07 in1018.3 mb 0.00 in0.0 mm 0.00 in0.0 mm 0.00 in0.0 mm
03:50 PM 42.9°F6.1°C 27.4°F-2.6°C 54% 16.0 mph NW25.7 kmh NW 23.0 mph37.0 kmh 30.07 in1018.3 mb 0.00 in0.0 mm 0.00 in0.0 mm 0.00 in0.0 mm
03:55 PM 42.7°F5.9°C 26.8°F-2.9°C 53% 15.0 mph NNW24.1 kmh NNW 23.0 mph37.0 kmh 30.08 in1018.6 mb 0.00 in0.0 mm 0.00 in0.0 mm 0.00 in0.0 mm
04:00 PM 42.5°F5.8°C 26.6°F-3.0°C 53% 14.0 mph NW22.5 kmh NW 23.0 mph37.0 kmh 30.08 in1018.6 mb 0.00 in0.0 mm 0.00 in0.0 mm 0.00 in0.0 mm
04:05 PM 42.2°F5.7°C 27.6°F-2.4°C 56% 13.0 mph NW20.9 kmh NW 16.0 mph25.7 kmh 30.08 in1018.6 mb 0.00 in0.0 mm 0.00 in0.0 mm 0.00 in0.0 mm
04:10 PM 41.9°F5.5°C 27.4°F-2.6°C 56% 13.0 mph NW20.9 kmh NW 20.0 mph32.2 kmh 30.08 in1018.6 mb 0.00 in0.0 mm 0.00 in0.0 mm 0.00 in0.0 mm
04:15 PM 41.9°F5.5°C 26.9°F-2.8°C 55% 11.0 mph NW17.7 kmh NW 20.0 mph32.2 kmh 30.08 in1018.6 mb 0.00 in0.0 mm 0.00 in0.0 mm 0.00 in0.0 mm
04:20 PM 41.7°F5.4°C 27.2°F-2.7°C 56% 10.0 mph N16.1 kmh N 18.0 mph29.0 kmh 30.09 in1019.0 mb 0.00 in0.0 mm 0.00 in0.0 mm 0.00 in0.0 mm
04:25 PM 41.5°F5.3°C 26.6°F-3.0°C 55% 11.0 mph NW17.7 kmh NW 20.0 mph32.2 kmh 30.09 in1019.0 mb 0.00 in0.0 mm 0.00 in0.0 mm 0.00 in0.0 mm
04:30 PM 41.6°F5.3°C 27.1°F-2.7°C 56% 14.0 mph NW22.5 kmh NW 20.0 mph32.2 kmh 30.09 in1019.0 mb 0.00 in0.0 mm 0.00 in0.0 mm 0.00 in0.0 mm
04:35 PM 41.9°F5.5°C 27.4°F-2.6°C 56% 15.0 mph NW24.1 kmh NW 18.0 mph29.0 kmh 30.09 in1019.0 mb 0.00 in0.0 mm 0.00 in0.0 mm 0.00 in0.0 mm
04:40 PM 42.1°F5.6°C 27.6°F-2.4°C 56% 15.0 mph N24.1 kmh N 19.0 mph30.6 kmh 30.10 in1019.3 mb 0.00 in0.0 mm 0.00 in0.0 mm 0.00 in0.0 mm
04:45 PM 42.3°F5.7°C 27.3°F-2.6°C 55% 8.0 mph N12.9 kmh N 19.0 mph30.6 kmh 30.11 in1019.6 mb 0.00 in0.0 mm 0.00 in0.0 mm 0.00 in0.0 mm
04:50 PM 42.2°F5.7°C 26.3°F-3.2°C 53% 9.0 mph NW14.5 kmh NW 17.0 mph27.4 kmh 30.11 in1019.6 mb 0.00 in0.0 mm 0.00 in0.0 mm 0.00 in0.0 mm
04:55 PM 42.1°F5.6°C 27.1°F-2.7°C 55% 11.0 mph N17.7 kmh N 18.0 mph29.0 kmh 30.11 in1019.6 mb 0.00 in0.0 mm 0.00 in0.0 mm 0.00 in0.0 mm
05:00 PM 41.7°F5.4°C 27.2°F-2.7°C 56% 9.0 mph NW14.5 kmh NW 22.0 mph35.4 kmh 30.12 in1020.0 mb 0.00 in0.0 mm 0.00 in0.0 mm 0.00 in0.0 mm
05:05 PM 41.6°F5.3°C 27.1°F-2.7°C 56% 12.0 mph NNW19.3 kmh NNW 17.0 mph27.4 kmh 30.12 in1020.0 mb 0.00 in0.0 mm 0.00 in0.0 mm 0.00 in0.0 mm
05:10 PM 41.5°F5.3°C 27.4°F-2.6°C 57% 11.0 mph NW17.7 kmh NW 23.0 mph37.0 kmh 30.12 in1020.0 mb 0.00 in0.0 mm 0.00 in0.0 mm 0.00 in0.0 mm
05:15 PM 41.2°F5.1°C 27.1°F-2.7°C 57% 9.0 mph NW14.5 kmh NW 23.0 mph37.0 kmh 30.12 in1020.0 mb 0.00 in0.0 mm 0.00 in0.0 mm 0.00 in0.0 mm
05:20 PM 41.0°F5.0°C 27.8°F-2.3°C 59% 7.0 mph NW11.3 kmh NW 21.0 mph33.8 kmh 30.13 in1020.3 mb 0.00 in0.0 mm 0.00 in0.0 mm 0.00 in0.0 mm
05:25 PM 40.9°F4.9°C 27.7°F-2.4°C 59% 14.0 mph NW22.5 kmh NW 21.0 mph33.8 kmh 30.13 in1020.3 mb 0.00 in0.0 mm 0.00 in0.0 mm 0.00 in0.0 mm
05:30 PM 40.9°F4.9°C 28.1°F-2.2°C 60% 13.0 mph NW20.9 kmh NW 21.0 mph33.8 kmh 30.14 in1020.7 mb 0.00 in0.0 mm 0.00 in0.0 mm 0.00 in0.0 mm
05:35 PM 40.8°F4.9°C 28.0°F-2.2°C 60% 9.0 mph NW14.5 kmh NW 20.0 mph32.2 kmh 30.14 in1020.7 mb 0.00 in0.0 mm 0.00 in0.0 mm 0.00 in0.0 mm
05:40 PM 40.7°F4.8°C 28.3°F-2.1°C 61% 15.0 mph NW24.1 kmh NW 21.0 mph33.8 kmh 30.14 in1020.7 mb 0.00 in0.0 mm 0.00 in0.0 mm 0.00 in0.0 mm
05:45 PM 40.5°F4.7°C 28.5°F-1.9°C 62% 13.0 mph NW20.9 kmh NW 21.0 mph33.8 kmh 30.15 in1021.0 mb 0.00 in0.0 mm 0.00 in0.0 mm 0.00 in0.0 mm
05:50 PM 40.4°F4.7°C 28.4°F-2.0°C 62% 7.0 mph NW11.3 kmh NW 18.0 mph29.0 kmh 30.15 in1021.0 mb 0.00 in0.0 mm 0.00 in0.0 mm 0.00 in0.0 mm
05:55 PM 40.3°F4.6°C 28.7°F-1.8°C 63% 11.0 mph NW17.7 kmh NW 18.0 mph29.0 kmh 30.16 in1021.3 mb 0.00 in0.0 mm 0.00 in0.0 mm 0.00 in0.0 mm
06:00 PM 40.2°F4.6°C 28.6°F-1.9°C 63% 10.0 mph NW16.1 kmh NW 18.0 mph29.0 kmh 30.16 in1021.3 mb 0.00 in0.0 mm 0.00 in0.0 mm 0.00 in0.0 mm
06:05 PM 40.2°F4.6°C 28.6°F-1.9°C 63% 10.0 mph NW16.1 kmh NW 15.0 mph24.1 kmh 30.16 in1021.3 mb 0.00 in0.0 mm 0.00 in0.0 mm 0.00 in0.0 mm
06:10 PM 40.1°F4.5°C 28.5°F-1.9°C 63% 13.0 mph NW20.9 kmh NW 18.0 mph29.0 kmh 30.16 in1021.3 mb 0.00 in0.0 mm 0.00 in0.0 mm 0.00 in0.0 mm
06:15 PM 40.0°F4.4°C 28.8°F-1.8°C 64% 10.0 mph NW16.1 kmh NW 18.0 mph29.0 kmh 30.17 in1021.7 mb 0.00 in0.0 mm 0.00 in0.0 mm 0.00 in0.0 mm
06:20 PM 39.9°F4.4°C 28.7°F-1.8°C 64% 10.0 mph NW16.1 kmh NW 16.0 mph25.7 kmh 30.17 in1021.7 mb 0.00 in0.0 mm 0.00 in0.0 mm 0.00 in0.0 mm
06:25 PM 39.7°F4.3°C 28.5°F-1.9°C 64% 10.0 mph N16.1 kmh N 16.0 mph25.7 kmh 30.17 in1021.7 mb 0.00 in0.0 mm 0.00 in0.0 mm 0.00 in0.0 mm
06:30 PM 39.5°F4.2°C 28.4°F-2.0°C 64% 12.0 mph NW19.3 kmh NW 17.0 mph27.4 kmh 30.17 in1021.7 mb 0.00 in0.0 mm 0.00 in0.0 mm 0.00 in0.0 mm
06:35 PM 39.3°F4.1°C 28.2°F-2.1°C 64% 16.0 mph NW25.7 kmh NW 17.0 mph27.4 kmh 30.17 in1021.7 mb 0.00 in0.0 mm 0.00 in0.0 mm 0.00 in0.0 mm
06:40 PM 39.0°F3.9°C 27.9°F-2.3°C 64% 14.0 mph NW22.5 kmh NW 17.0 mph27.4 kmh 30.18 in1022.0 mb 0.00 in0.0 mm 0.00 in0.0 mm 0.00 in0.0 mm
06:45 PM 38.7°F3.7°C 27.2°F-2.7°C 63% 13.0 mph NW20.9 kmh NW 17.0 mph27.4 kmh 30.18 in1022.0 mb 0.00 in0.0 mm 0.00 in0.0 mm 0.00 in0.0 mm
06:50 PM 38.4°F3.6°C 27.3°F-2.6°C 64% 13.0 mph NW20.9 kmh NW 15.0 mph24.1 kmh 30.19 in1022.4 mb 0.00 in0.0 mm 0.00 in0.0 mm 0.00 in0.0 mm
06:55 PM 38.2°F3.4°C 27.1°F-2.7°C 64% 14.0 mph NW22.5 kmh NW 16.0 mph25.7 kmh 30.19 in1022.4 mb 0.00 in0.0 mm 0.00 in0.0 mm 0.00 in0.0 mm
07:05 PM 37.6°F3.1°C 26.9°F-2.8°C 65% 13.0 mph W20.9 kmh W 13.0 mph20.9 kmh 30.21 in1023.0 mb 0.00 in0.0 mm 0.00 in0.0 mm 0.00 in0.0 mm
07:10 PM 37.4°F3.0°C 27.1°F-2.7°C 66% 11.0 mph NW17.7 kmh NW 14.0 mph22.5 kmh 30.21 in1023.0 mb 0.00 in0.0 mm 0.00 in0.0 mm 0.00 in0.0 mm
07:15 PM 37.2°F2.9°C 26.9°F-2.8°C 66% 9.0 mph NW14.5 kmh NW 15.0 mph24.1 kmh 30.22 in1023.4 mb 0.00 in0.0 mm 0.00 in0.0 mm 0.00 in0.0 mm
07:20 PM 37.0°F2.8°C 27.1°F-2.7°C 67% 7.0 mph WSW11.3 kmh WSW 14.0 mph22.5 kmh 30.22 in1023.4 mb 0.00 in0.0 mm 0.00 in0.0 mm 0.00 in0.0 mm
07:25 PM 36.8°F2.7°C 26.9°F-2.8°C 67% 6.0 mph NW9.7 kmh NW 14.0 mph22.5 kmh 30.23 in1023.7 mb 0.00 in0.0 mm 0.00 in0.0 mm 0.00 in0.0 mm
07:30 PM 36.5°F2.5°C 27.0°F-2.8°C 68% 6.0 mph WNW9.7 kmh WNW 14.0 mph22.5 kmh 30.23 in1023.7 mb 0.00 in0.0 mm 0.00 in0.0 mm 0.00 in0.0 mm
07:35 PM 36.3°F2.4°C 27.1°F-2.7°C 69% 7.0 mph NW11.3 kmh NW 12.0 mph19.3 kmh 30.24 in1024.0 mb 0.00 in0.0 mm 0.00 in0.0 mm 0.00 in0.0 mm
07:40 PM 36.0°F2.2°C 26.8°F-2.9°C 69% 9.0 mph NW14.5 kmh NW 12.0 mph19.3 kmh 30.24 in1024.0 mb 0.00 in0.0 mm 0.00 in0.0 mm 0.00 in0.0 mm
07:45 PM 35.8°F2.1°C 26.6°F-3.0°C 69% 8.0 mph NW12.9 kmh NW 12.0 mph19.3 kmh 30.24 in1024.0 mb 0.00 in0.0 mm 0.00 in0.0 mm 0.00 in0.0 mm
07:50 PM 35.5°F1.9°C 26.7°F-2.9°C 70% 7.0 mph NW11.3 kmh NW 12.0 mph19.3 kmh 30.25 in1024.4 mb 0.00 in0.0 mm 0.00 in0.0 mm 0.00 in0.0 mm
07:55 PM 35.2°F1.8°C 26.4°F-3.1°C 70% 6.0 mph NW9.7 kmh NW 12.0 mph19.3 kmh 30.25 in1024.4 mb 0.00 in0.0 mm 0.00 in0.0 mm 0.00 in0.0 mm
08:00 PM 34.9°F1.6°C 26.5°F-3.1°C 71% 7.0 mph WNW11.3 kmh WNW 12.0 mph19.3 kmh 30.26 in1024.7 mb 0.00 in0.0 mm 0.00 in0.0 mm 0.00 in0.0 mm
08:05 PM 34.7°F1.5°C 26.6°F-3.0°C 72% 2.0 mph NW3.2 kmh NW 9.0 mph14.5 kmh 30.27 in1025.1 mb 0.00 in0.0 mm 0.00 in0.0 mm 0.00 in0.0 mm
08:10 PM 34.5°F1.4°C 26.4°F-3.1°C 72% 5.0 mph NW8.0 kmh NW 9.0 mph14.5 kmh 30.26 in1024.7 mb 0.00 in0.0 mm 0.00 in0.0 mm 0.00 in0.0 mm
08:20 PM 34.4°F1.3°C 26.3°F-3.2°C 72% 6.0 mph NW9.7 kmh NW 12.0 mph19.3 kmh 30.27 in1025.1 mb 0.00 in0.0 mm 0.00 in0.0 mm 0.00 in0.0 mm
08:25 PM 34.3°F1.3°C 26.2°F-3.2°C 72% 7.0 mph NW11.3 kmh NW 17.0 mph27.4 kmh 30.27 in1025.1 mb 0.00 in0.0 mm 0.00 in0.0 mm 0.00 in0.0 mm
08:30 PM 34.3°F1.3°C 26.2°F-3.2°C 72% 6.0 mph WNW9.7 kmh WNW 17.0 mph27.4 kmh 30.27 in1025.1 mb 0.00 in0.0 mm 0.00 in0.0 mm 0.00 in0.0 mm
08:35 PM 34.2°F1.2°C 26.1°F-3.3°C 72% 5.0 mph NW8.0 kmh NW 11.0 mph17.7 kmh 30.28 in1025.4 mb 0.00 in0.0 mm 0.00 in0.0 mm 0.00 in0.0 mm
08:40 PM 34.0°F1.1°C 25.9°F-3.4°C 72% 5.0 mph WNW8.0 kmh WNW 11.0 mph17.7 kmh 30.28 in1025.4 mb 0.00 in0.0 mm 0.00 in0.0 mm 0.00 in0.0 mm
08:45 PM 33.9°F1.1°C 25.8°F-3.4°C 72% 9.0 mph NW14.5 kmh NW 11.0 mph17.7 kmh 30.29 in1025.7 mb 0.00 in0.0 mm 0.00 in0.0 mm 0.00 in0.0 mm
08:50 PM 33.8°F1.0°C 26.1°F-3.3°C 73% 4.0 mph WNW6.4 kmh WNW 10.0 mph16.1 kmh 30.29 in1025.7 mb 0.00 in0.0 mm 0.00 in0.0 mm 0.00 in0.0 mm
08:55 PM 33.6°F0.9°C 25.9°F-3.4°C 73% 7.0 mph NW11.3 kmh NW 11.0 mph17.7 kmh 30.29 in1025.7 mb 0.00 in0.0 mm 0.00 in0.0 mm 0.00 in0.0 mm
09:00 PM 33.6°F0.9°C 25.9°F-3.4°C 73% 9.0 mph WNW14.5 kmh WNW 13.0 mph20.9 kmh 30.30 in1026.1 mb 0.00 in0.0 mm 0.00 in0.0 mm 0.00 in0.0 mm
09:05 PM 33.5°F0.8°C 25.8°F-3.4°C 73% 6.0 mph W9.7 kmh W 14.0 mph22.5 kmh 30.29 in1025.7 mb 0.00 in0.0 mm 0.00 in0.0 mm 0.00 in0.0 mm
09:10 PM 33.5°F0.8°C 25.8°F-3.4°C 73% 11.0 mph WNW17.7 kmh WNW 14.0 mph22.5 kmh 30.30 in1026.1 mb 0.00 in0.0 mm 0.00 in0.0 mm 0.00 in0.0 mm
09:15 PM 33.4°F0.8°C 25.7°F-3.5°C 73% 10.0 mph WNW16.1 kmh WNW 14.0 mph22.5 kmh 30.30 in1026.1 mb 0.00 in0.0 mm 0.00 in0.0 mm 0.00 in0.0 mm
09:20 PM 33.4°F0.8°C 25.7°F-3.5°C 73% 9.0 mph NW14.5 kmh NW 14.0 mph22.5 kmh 30.30 in1026.1 mb 0.00 in0.0 mm 0.00 in0.0 mm 0.00 in0.0 mm
09:25 PM 33.3°F0.7°C 25.6°F-3.6°C 73% 9.0 mph NW14.5 kmh NW 14.0 mph22.5 kmh 30.31 in1026.4 mb 0.00 in0.0 mm 0.00 in0.0 mm 0.00 in0.0 mm
09:30 PM 33.2°F0.7°C 25.5°F-3.6°C 73% 7.0 mph NW11.3 kmh NW 14.0 mph22.5 kmh 30.31 in1026.4 mb 0.00 in0.0 mm 0.00 in0.0 mm 0.00 in0.0 mm
09:35 PM 33.1°F0.6°C 25.7°F-3.5°C 74% 12.0 mph WNW19.3 kmh WNW 12.0 mph19.3 kmh 30.31 in1026.4 mb 0.00 in0.0 mm 0.00 in0.0 mm 0.00 in0.0 mm
09:40 PM 33.1°F0.6°C 25.4°F-3.7°C 73% 5.0 mph NW8.0 kmh NW 12.0 mph19.3 kmh 30.31 in1026.4 mb 0.00 in0.0 mm 0.00 in0.0 mm 0.00 in0.0 mm
09:45 PM 33.0°F0.6°C 25.6°F-3.6°C 74% 4.0 mph NW6.4 kmh NW 12.0 mph19.3 kmh 30.32 in1026.8 mb 0.00 in0.0 mm 0.00 in0.0 mm 0.00 in0.0 mm
09:50 PM 32.9°F0.5°C 25.5°F-3.6°C 74% 6.0 mph WNW9.7 kmh WNW 9.0 mph14.5 kmh 30.32 in1026.8 mb 0.00 in0.0 mm 0.00 in0.0 mm 0.00 in0.0 mm
09:55 PM 32.7°F0.4°C 25.3°F-3.7°C 74% 6.0 mph NW9.7 kmh NW 9.0 mph14.5 kmh 30.32 in1026.8 mb 0.00 in0.0 mm 0.00 in0.0 mm 0.00 in0.0 mm
10:00 PM 32.6°F0.3°C 25.6°F-3.6°C 75% 3.0 mph W4.8 kmh W 9.0 mph14.5 kmh 30.32 in1026.8 mb 0.00 in0.0 mm 0.00 in0.0 mm 0.00 in0.0 mm
10:05 PM 32.3°F0.2°C 25.6°F-3.6°C 76% 5.0 mph W8.0 kmh W 7.0 mph11.3 kmh 30.33 in1027.1 mb 0.00 in0.0 mm 0.00 in0.0 mm 0.00 in0.0 mm
10:10 PM 32.0°F0.0°C 25.6°F-3.6°C 77% 4.0 mph W6.4 kmh W 7.0 mph11.3 kmh 30.33 in1027.1 mb 0.00 in0.0 mm 0.00 in0.0 mm 0.00 in0.0 mm
10:15 PM 31.9°F-0.1°C 25.2°F-3.8°C 76% 5.0 mph W8.0 kmh W 7.0 mph11.3 kmh 30.33 in1027.1 mb 0.00 in0.0 mm 0.00 in0.0 mm 0.00 in0.0 mm
10:20 PM 31.8°F-0.1°C 25.4°F-3.7°C 77% 2.0 mph NW3.2 kmh NW 7.0 mph11.3 kmh 30.33 in1027.1 mb 0.00 in0.0 mm 0.00 in0.0 mm 0.00 in0.0 mm
10:25 PM 31.8°F-0.1°C 25.4°F-3.7°C 77% 4.0 mph WNW6.4 kmh WNW 8.0 mph12.9 kmh 30.34 in1027.4 mb 0.00 in0.0 mm 0.00 in0.0 mm 0.00 in0.0 mm
10:30 PM 31.7°F-0.2°C 25.3°F-3.7°C 77% 4.0 mph NW6.4 kmh NW 12.0 mph19.3 kmh 30.34 in1027.4 mb 0.00 in0.0 mm 0.00 in0.0 mm 0.00 in0.0 mm
10:35 PM 31.7°F-0.2°C 25.0°F-3.9°C 76% 4.0 mph NW6.4 kmh NW 6.0 mph9.7 kmh 30.34 in1027.4 mb 0.00 in0.0 mm 0.00 in0.0 mm 0.00 in0.0 mm
10:40 PM 31.7°F-0.2°C 25.3°F-3.7°C 77% 5.0 mph NW8.0 kmh NW 7.0 mph11.3 kmh 30.35 in1027.8 mb 0.00 in0.0 mm 0.00 in0.0 mm 0.00 in0.0 mm
10:45 PM 31.7°F-0.2°C 25.0°F-3.9°C 76% 4.0 mph WNW6.4 kmh WNW 8.0 mph12.9 kmh 30.35 in1027.8 mb 0.00 in0.0 mm 0.00 in0.0 mm 0.00 in0.0 mm
10:50 PM 31.8°F-0.1°C 25.1°F-3.8°C 76% 2.0 mph WNW3.2 kmh WNW 8.0 mph12.9 kmh 30.36 in1028.1 mb 0.00 in0.0 mm 0.00 in0.0 mm 0.00 in0.0 mm
10:55 PM 31.7°F-0.2°C 25.0°F-3.9°C 76% 5.0 mph NW8.0 kmh NW 9.0 mph14.5 kmh 30.36 in1028.1 mb 0.00 in0.0 mm 0.00 in0.0 mm 0.00 in0.0 mm
11:00 PM 31.7°F-0.2°C 25.0°F-3.9°C 76% 4.0 mph WNW6.4 kmh WNW 10.0 mph16.1 kmh 30.36 in1028.1 mb 0.00 in0.0 mm 0.00 in0.0 mm 0.00 in0.0 mm
11:05 PM 31.6°F-0.2°C 24.9°F-3.9°C 76% 3.0 mph NW4.8 kmh NW 7.0 mph11.3 kmh 30.36 in1028.1 mb 0.00 in0.0 mm 0.00 in0.0 mm 0.00 in0.0 mm
11:10 PM 31.4°F-0.3°C 24.7°F-4.1°C 76% 2.0 mph NW3.2 kmh NW 7.0 mph11.3 kmh 30.36 in1028.1 mb 0.00 in0.0 mm 0.00 in0.0 mm 0.00 in0.0 mm
11:15 PM 31.4°F-0.3°C 24.7°F-4.1°C 76% 4.0 mph NW6.4 kmh NW 7.0 mph11.3 kmh 30.36 in1028.1 mb 0.00 in0.0 mm 0.00 in0.0 mm 0.00 in0.0 mm
11:20 PM 31.3°F-0.4°C 24.6°F-4.1°C 76% 6.0 mph NW9.7 kmh NW 6.0 mph9.7 kmh 30.37 in1028.4 mb 0.00 in0.0 mm 0.00 in0.0 mm 0.00 in0.0 mm
11:25 PM 31.2°F-0.4°C 24.5°F-4.2°C 76% 3.0 mph NW4.8 kmh NW 6.0 mph9.7 kmh 30.37 in1028.4 mb 0.00 in0.0 mm 0.00 in0.0 mm 0.00 in0.0 mm
11:30 PM 31.2°F-0.4°C 24.5°F-4.2°C 76% 5.0 mph WNW8.0 kmh WNW 7.0 mph11.3 kmh 30.38 in1028.8 mb 0.00 in0.0 mm 0.00 in0.0 mm 0.00 in0.0 mm
11:35 PM 31.2°F-0.4°C 24.5°F-4.2°C 76% 3.0 mph NW4.8 kmh NW 8.0 mph12.9 kmh 30.38 in1028.8 mb 0.00 in0.0 mm 0.00 in0.0 mm 0.00 in0.0 mm
11:40 PM 31.1°F-0.5°C 24.4°F-4.2°C 76% 5.0 mph NW8.0 kmh NW 8.0 mph12.9 kmh 30.38 in1028.8 mb 0.00 in0.0 mm 0.00 in0.0 mm 0.00 in0.0 mm
11:45 PM 31.0°F-0.6°C 24.3°F-4.3°C 76% 5.0 mph WNW8.0 kmh WNW 8.0 mph12.9 kmh 30.38 in1028.8 mb 0.00 in0.0 mm 0.00 in0.0 mm 0.00 in0.0 mm
11:50 PM 30.9°F-0.6°C 24.6°F-4.1°C 77% 5.0 mph W8.0 kmh W 5.0 mph8.0 kmh 30.38 in1028.8 mb 0.00 in0.0 mm 0.00 in0.0 mm 0.00 in0.0 mm
11:55 PM 30.8°F-0.7°C 24.5°F-4.2°C 77% 2.0 mph WSW3.2 kmh WSW 6.0 mph9.7 kmh 30.38 in1028.8 mb 0.00 in0.0 mm 0.00 in0.0 mm 0.00 in0.0 mm